Time;durP1;ratioP1;P1;durP2;ratioP2;P2;SDS_P1;SDS_P2;PMS_P1;PMS_P2;Temp;Humidity;BMP_temperature;BMP_pressure;BME280_temperature;BME280_humidity;BME280_pressure;Samples;Min_cycle;Max_cycle;Signal;HPM_P1;HPM_P2
2021/10/08 00:01:31;;;;;;;8.60;2.97;;;;;;;15.75;48.41;100629.09;4483363;32;35682;-47
2021/10/08 00:04:00;;;;;;;9.27;3.22;;;;;;;15.89;48.12;100632.50;4483257;32;34505;-51
2021/10/08 00:06:28;;;;;;;8.25;2.70;;;;;;;15.77;48.27;100631.72;4483529;32;33539;-47
2021/10/08 00:08:56;;;;;;;7.68;2.58;;;;;;;15.70;48.57;100628.28;4482853;32;34329;-47
2021/10/08 00:11:25;;;;;;;12.52;2.97;;;;;;;15.80;48.31;100629.94;4483226;32;35034;-48
2021/10/08 00:13:53;;;;;;;10.38;3.30;;;;;;;15.65;48.76;100637.03;4482628;32;34240;-47
2021/10/08 00:16:20;;;;;;;8.77;2.67;;;;;;;15.70;48.51;100635.25;4468845;32;33479;-48
2021/10/08 00:18:48;;;;;;;6.82;2.70;;;;;;;15.61;48.88;100641.47;4483093;32;33898;-47
2021/10/08 00:21:16;;;;;;;9.45;4.00;;;;;;;15.63;48.58;100639.69;4456167;32;34713;-47
2021/10/08 00:23:44;;;;;;;11.32;3.12;;;;;;;15.50;48.53;100638.91;4482970;32;34417;-47
2021/10/08 00:26:11;;;;;;;10.20;3.08;;;;;;;15.59;48.55;100637.97;4483301;32;34287;-47
2021/10/08 00:28:39;;;;;;;6.75;2.95;;;;;;;15.65;48.51;100643.16;4483033;32;34867;-47
2021/10/08 00:31:07;;;;;;;7.20;2.78;;;;;;;15.78;48.16;100644.84;4482748;32;34841;-47
2021/10/08 00:33:35;;;;;;;11.43;2.75;;;;;;;15.84;47.76;100644.78;4482578;32;35192;-49
2021/10/08 00:36:03;;;;;;;8.73;2.67;;;;;;;15.82;47.89;100645.66;4483238;32;33812;-47
2021/10/08 00:38:30;;;;;;;6.53;2.87;;;;;;;15.84;48.05;100650.00;4482727;32;33736;-47
2021/10/08 00:40:58;;;;;;;5.37;2.90;;;;;;;15.85;47.85;100643.91;4483089;32;34697;-48
2021/10/08 00:43:26;;;;;;;7.78;2.80;;;;;;;15.95;47.74;100645.53;4482850;32;34556;-48
2021/10/08 00:45:53;;;;;;;7.93;2.67;;;;;;;15.81;48.25;100649.19;4482872;32;34379;-48
2021/10/08 00:48:21;;;;;;;4.70;2.20;;;;;;;15.69;48.10;100654.53;4482841;32;34179;-47
2021/10/08 00:50:50;;;;;;;11.07;3.17;;;;;;;15.91;47.65;100642.94;4482882;32;34727;-48
2021/10/08 00:53:19;;;;;;;10.90;2.35;;;;;;;15.56;48.46;100659.84;4483141;32;34512;-49
2021/10/08 00:55:49;;;;;;;6.87;2.97;;;;;;;15.65;48.58;100658.91;4482748;32;34154;-47
2021/10/08 00:58:18;;;;;;;11.88;2.92;;;;;;;15.72;47.85;100662.34;4482552;32;33964;-47
2021/10/08 01:00:48;;;;;;;7.97;3.60;;;;;;;15.49;48.28;100665.13;4482341;32;34755;-54
2021/10/08 01:03:18;;;;;;;8.60;2.50;;;;;;;15.68;47.99;100668.50;4483055;32;34571;-47
2021/10/08 01:05:46;;;;;;;8.55;2.72;;;;;;;15.61;48.04;100672.94;4483082;32;33680;-49
2021/10/08 01:08:13;;;;;;;5.60;2.60;;;;;;;15.43;48.46;100668.63;4469028;32;34099;-49
2021/10/08 01:10:43;;;;;;;8.00;2.53;;;;;;;15.53;47.88;100672.97;4482969;32;34836;-48
2021/10/08 01:13:13;;;;;;;5.40;2.15;;;;;;;15.38;48.20;100675.62;4482891;32;35065;-48
2021/10/08 01:15:42;;;;;;;8.10;2.72;;;;;;;15.57;47.63;100682.53;4482829;32;34447;-48
2021/10/08 01:18:09;;;;;;;9.85;2.83;;;;;;;15.38;48.04;100685.28;4468685;32;34324;-47
2021/10/08 01:20:38;;;;;;;5.70;2.87;;;;;;;15.57;47.94;100682.53;4482638;32;35810;-49
2021/10/08 01:23:06;;;;;;;4.28;2.10;;;;;;;15.56;47.96;100680.81;4482522;32;34575;-48
2021/10/08 01:25:35;;;;;;;12.15;2.58;;;;;;;15.76;46.97;100677.19;4482425;32;33088;-47
2021/10/08 01:28:06;;;;;;;7.50;2.78;;;;;;;15.66;47.15;100683.38;4482704;32;33778;-50
2021/10/08 01:30:34;;;;;;;6.75;2.47;;;;;;;15.50;47.81;100678.22;4482288;32;34973;-48
2021/10/08 01:33:04;;;;;;;7.72;2.33;;;;;;;15.57;47.11;100679.94;4482778;32;34423;-48
2021/10/08 01:35:32;;;;;;;6.72;2.33;;;;;;;15.56;47.21;100679.94;4482346;32;34164;-47
2021/10/08 01:38:00;;;;;;;4.37;2.25;;;;;;;15.28;47.61;100684.47;4482254;32;34373;-52
2021/10/08 01:40:29;;;;;;;4.82;2.67;;;;;;;15.28;47.59;100678.34;4482332;32;35013;-47
2021/10/08 01:42:56;;;;;;;9.35;2.67;;;;;;;15.18;47.75;100687.13;4482404;32;34241;-48
2021/10/08 01:45:24;;;;;;;4.87;2.72;;;;;;;15.09;47.72;100687.16;4482306;32;33446;-47
2021/10/08 01:47:52;;;;;;;9.68;2.78;;;;;;;15.20;47.60;100683.63;4482458;32;34303;-49
2021/10/08 01:50:19;;;;;;;5.53;2.33;;;;;;;15.28;47.34;100694.06;4483255;32;34941;-48
2021/10/08 01:52:48;;;;;;;6.43;2.40;;;;;;;15.17;47.81;100681.00;4484148;32;34326;-47
2021/10/08 01:55:15;;;;;;;7.62;2.47;;;;;;;15.40;47.26;100686.97;4484446;32;33697;-48
2021/10/08 01:57:44;;;;;;;11.10;2.37;;;;;;;15.47;46.99;100688.75;4484444;32;34708;-50
2021/10/08 02:00:13;;;;;;;5.78;2.08;;;;;;;15.33;47.25;100692.28;4470310;32;34721;-47
2021/10/08 02:02:40;;;;;;;7.95;2.35;;;;;;;15.22;47.25;100697.56;4484104;32;34479;-47
2021/10/08 02:05:09;;;;;;;5.43;2.72;;;;;;;15.18;47.35;100698.47;4484101;32;34444;-47
2021/10/08 02:07:36;;;;;;;5.65;2.72;;;;;;;15.11;47.76;100701.13;4484407;32;33746;-48
2021/10/08 02:10:07;;;;;;;9.52;3.30;;;;;;;15.19;47.70;100700.19;4470695;32;34749;-47
2021/10/08 02:12:35;;;;;;;6.00;2.50;;;;;;;15.14;47.69;100707.22;4484509;32;34437;-47
2021/10/08 02:15:03;;;;;;;9.43;2.80;;;;;;;15.14;47.54;100699.34;4484609;32;33658;-47
2021/10/08 02:17:32;;;;;;;7.43;2.28;;;;;;;15.15;47.26;100701.09;4484580;32;34753;-48
2021/10/08 02:19:59;;;;;;;4.18;2.80;;;;;;;14.93;47.46;100702.94;4484322;32;35769;-47
2021/10/08 02:22:27;;;;;;;8.15;2.78;;;;;;;15.04;47.41;100700.28;4484364;32;35139;-48
2021/10/08 02:24:55;;;;;;;7.18;2.87;;;;;;;14.83;47.75;100695.97;4484716;32;33687;-47
2021/10/08 02:27:23;;;;;;;11.25;3.22;;;;;;;14.91;47.20;100694.22;4484424;32;34839;-48
2021/10/08 02:29:50;;;;;;;9.20;3.25;;;;;;;14.64;47.84;100701.28;4484562;32;34879;-48
2021/10/08 02:32:18;;;;;;;8.68;3.20;;;;;;;14.70;47.78;100698.66;4484137;32;35152;-48
2021/10/08 02:34:46;;;;;;;4.70;2.83;;;;;;;14.60;47.97;100708.28;4483819;32;33482;-47
2021/10/08 02:37:15;;;;;;;12.57;3.62;;;;;;;14.30;48.66;100705.72;4484097;32;33928;-48
2021/10/08 02:39:42;;;;;;;9.18;2.78;;;;;;;14.50;48.49;100706.53;4483764;32;35608;-47
2021/10/08 02:42:10;;;;;;;7.78;3.10;;;;;;;14.43;47.98;100714.44;4484010;32;34556;-50
2021/10/08 02:44:38;;;;;;;6.65;2.83;;;;;;;14.42;48.34;100710.06;4484426;32;34761;-47
2021/10/08 02:47:06;;;;;;;10.57;3.33;;;;;;;14.57;47.67;100715.28;4484106;32;34009;-47
2021/10/08 02:49:34;;;;;;;6.47;2.78;;;;;;;14.65;47.44;100721.34;4470047;32;34838;-47
2021/10/08 02:52:03;;;;;;;12.25;3.92;;;;;;;14.47;47.72;100716.16;4483440;32;34490;-47
2021/10/08 02:54:32;;;;;;;9.70;3.53;;;;;;;14.52;47.60;100715.28;4484012;32;33886;-47
2021/10/08 02:57:00;;;;;;;9.02;2.97;;;;;;;14.57;47.53;100717.91;4483518;32;34074;-47
2021/10/08 02:59:28;;;;;;;12.75;3.08;;;;;;;14.50;47.74;100718.78;4483256;32;35273;-47
2021/10/08 03:01:55;;;;;;;7.32;3.00;;;;;;;14.11;48.23;100717.91;4483539;32;35096;-47
2021/10/08 03:04:23;;;;;;;9.77;3.03;;;;;;;14.16;48.02;100707.44;4483707;32;33555;-47
2021/10/08 03:06:50;;;;;;;11.20;2.95;;;;;;;14.08;48.15;100712.66;4483078;32;33767;-48
2021/10/08 03:09:18;;;;;;;8.27;3.30;;;;;;;14.17;48.31;100717.00;4483046;32;35991;-47
2021/10/08 03:11:48;;;;;;;5.93;3.10;;;;;;;14.32;47.84;100724.00;4483615;32;34581;-47
2021/10/08 03:14:15;;;;;;;9.00;3.12;;;;;;;14.44;47.36;100731.84;4483672;32;33760;-47
2021/10/08 03:16:43;;;;;;;11.45;3.30;;;;;;;14.27;47.84;100730.09;4483656;32;33848;-48
2021/10/08 03:19:11;;;;;;;10.50;3.42;;;;;;;14.34;47.28;100731.00;4483641;32;35483;-47
2021/10/08 03:21:38;;;;;;;10.05;2.97;;;;;;;14.33;47.33;100729.28;4483768;32;34667;-47
2021/10/08 03:24:06;;;;;;;7.30;3.50;;;;;;;14.36;47.26;100744.94;4484055;32;33438;-48
2021/10/08 03:26:34;;;;;;;9.68;3.97;;;;;;;14.19;47.32;100746.69;4483388;32;33871;-47
2021/10/08 03:29:02;;;;;;;9.75;3.22;;;;;;;14.00;47.86;100755.41;4484013;32;35908;-49
2021/10/08 03:31:30;;;;;;;6.60;3.40;;;;;;;14.26;47.39;100754.50;4483950;32;35046;-47
2021/10/08 03:33:58;;;;;;;10.23;3.15;;;;;;;14.15;47.85;100756.25;4483752;32;33743;-47
2021/10/08 03:36:30;;;;;;;7.25;3.22;;;;;;;14.39;47.56;100744.94;4484007;32;34879;-48
2021/10/08 03:38:58;;;;;;;10.73;3.92;;;;;;;14.26;47.64;100757.12;4483674;32;35323;-48
2021/10/08 03:41:26;;;;;;;9.27;3.70;;;;;;;14.35;47.26;100747.56;4483745;32;34568;-48
2021/10/08 03:43:55;;;;;;;6.95;3.60;;;;;;;14.44;46.94;100752.78;4469977;32;33449;-47
2021/10/08 03:46:26;;;;;;;9.27;3.78;;;;;;;14.15;47.64;100760.62;4483363;32;34896;-47
2021/10/08 03:51:28;;;;;;;12.85;4.85;;;;;;;13.91;47.90;100758.84;4483927;32;34464;-47
2021/10/08 03:53:56;;;;;;;12.50;4.10;;;;;;;14.02;47.67;100754.53;4483636;32;33844;-47
2021/10/08 03:56:23;;;;;;;11.10;3.45;;;;;;;14.09;47.20;100761.50;4483411;32;34331;-48
2021/10/08 03:58:51;;;;;;;8.93;2.95;;;;;;;13.97;47.24;100752.75;4483577;32;35787;-47
2021/10/08 04:01:19;;;;;;;11.38;3.47;;;;;;;14.16;46.98;100755.41;4483905;32;34211;-48
2021/10/08 04:03:47;;;;;;;7.37;4.07;;;;;;;14.27;46.89;100758.87;4483444;32;34062;-47
2021/10/08 04:06:15;;;;;;;9.88;3.72;;;;;;;14.00;47.33;100764.09;4483631;32;33930;-49
2021/10/08 04:08:43;;;;;;;8.38;3.78;;;;;;;14.10;47.41;100762.34;4484151;32;35182;-47
2021/10/08 04:11:11;;;;;;;13.52;3.72;;;;;;;14.46;46.95;100762.41;4484223;32;35134;-51
2021/10/08 04:13:38;;;;;;;15.63;5.18;;;;;;;14.59;46.73;100769.37;4483747;32;33368;-48
2021/10/08 04:16:06;;;;;;;11.90;4.22;;;;;;;14.43;46.91;100766.78;4484157;32;34624;-48
2021/10/08 04:18:34;;;;;;;9.35;3.53;;;;;;;14.50;47.06;100771.12;4484157;32;34950;-46
2021/10/08 04:21:02;;;;;;;7.82;3.50;;;;;;;14.09;47.43;100774.59;4483844;32;34443;-47
2021/10/08 04:23:30;;;;;;;6.55;3.67;;;;;;;13.92;47.74;100773.69;4483268;32;34460;-48
2021/10/08 04:25:57;;;;;;;6.80;3.95;;;;;;;13.94;47.54;100776.28;4483485;32;34433;-47
2021/10/08 04:28:26;;;;;;;11.15;4.07;;;;;;;13.89;47.27;100778.91;4469614;32;35230;-50
2021/10/08 04:30:53;;;;;;;14.45;3.67;;;;;;;14.00;47.24;100779.78;4483564;32;35252;-47
2021/10/08 04:33:25;;;;;;;10.75;3.25;;;;;;;13.65;47.93;100777.97;4483559;32;34225;-49
2021/10/08 04:35:59;;;;;;;7.22;3.92;;;;;;;13.80;47.81;100771.03;4483337;32;33935;-47
2021/10/08 04:38:29;;;;;;;9.30;3.50;;;;;;;13.98;47.85;100768.44;4483314;32;34963;-50
2021/10/08 04:40:59;;;;;;;12.27;4.07;;;;;;;13.99;47.95;100769.31;4483363;32;35148;-48
2021/10/08 04:43:27;;;;;;;8.30;3.78;;;;;;;14.02;47.98;100769.34;4483268;32;33200;-47
2021/10/08 04:45:56;;;;;;;7.85;3.62;;;;;;;13.85;48.74;100778.91;4469240;32;34038;-47
2021/10/08 04:48:24;;;;;;;12.13;3.55;;;;;;;13.86;48.78;100773.66;4469199;32;34995;-47
2021/10/08 04:50:51;;;;;;;8.75;4.18;;;;;;;13.85;48.95;100776.28;4482957;32;35401;-47
2021/10/08 04:53:22;;;;;;;10.63;4.28;;;;;;;13.73;49.23;100774.50;4483457;32;33826;-49
2021/10/08 04:55:50;;;;;;;10.68;3.65;;;;;;;13.89;49.14;100783.25;4483406;32;34110;-47
2021/10/08 04:58:19;;;;;;;11.70;4.40;;;;;;;13.70;49.07;100779.72;4483055;32;34796;-48
2021/10/08 05:00:48;;;;;;;9.18;4.28;;;;;;;13.67;49.00;100786.72;4482899;32;34855;-48
2021/10/08 05:03:17;;;;;;;10.95;4.72;;;;;;;13.57;49.29;100786.66;4482764;32;33415;-48
2021/10/08 05:05:50;;;;;;;8.27;4.37;;;;;;;13.29;49.94;100790.03;4482550;32;34766;-47
2021/10/08 05:08:19;;;;;;;9.32;4.53;;;;;;;13.38;49.26;100794.44;4469334;32;35454;-47
2021/10/08 05:10:47;;;;;;;14.63;5.30;;;;;;;13.39;49.30;100802.28;4482805;32;34551;-47
2021/10/08 05:13:15;;;;;;;9.82;4.47;;;;;;;13.52;49.11;100795.38;4482776;32;33455;-47
2021/10/08 05:15:43;;;;;;;10.57;4.70;;;;;;;13.45;49.40;100801.44;4469488;32;34065;-47
2021/10/08 05:18:12;;;;;;;10.85;4.45;;;;;;;13.45;49.36;100801.44;4482406;32;35210;-46
2021/10/08 05:20:39;;;;;;;13.65;4.57;;;;;;;13.57;49.27;100804.94;4482876;32;34869;-47
2021/10/08 05:23:07;;;;;;;11.90;4.30;;;;;;;13.65;49.09;100812.81;4482683;32;33576;-47
2021/10/08 05:25:35;;;;;;;11.77;4.65;;;;;;;13.67;48.64;100816.31;4481799;32;34728;-47
2021/10/08 05:28:02;;;;;;;14.65;4.78;;;;;;;13.63;48.72;100813.69;4468102;32;35857;-47
2021/10/08 05:30:31;;;;;;;12.95;4.68;;;;;;;13.56;48.73;100818.03;4482803;32;34634;-47
2021/10/08 05:33:00;;;;;;;8.48;4.40;;;;;;;13.65;48.68;100810.22;4482966;32;34725;-47
2021/10/08 05:35:28;;;;;;;11.35;4.53;;;;;;;13.72;48.77;100814.59;4482391;32;33936;-47
2021/10/08 05:37:55;;;;;;;19.52;6.12;;;;;;;13.55;49.25;100821.50;4482269;32;35116;-47
2021/10/08 05:40:23;;;;;;;10.23;5.37;;;;;;;13.61;48.59;100818.03;4482475;32;34778;-47
2021/10/08 05:42:51;;;;;;;9.68;4.53;;;;;;;13.90;48.11;100817.28;4482130;32;33272;-47
2021/10/08 05:45:18;;;;;;;13.52;4.68;;;;;;;13.87;47.72;100814.62;4482190;32;34178;-50
2021/10/08 05:47:46;;;;;;;13.70;5.20;;;;;;;13.79;48.29;100813.72;4482384;32;35965;-48
2021/10/08 05:50:14;;;;;;;11.68;6.03;;;;;;;13.78;48.43;100813.75;4482059;32;35252;-52
2021/10/08 05:52:41;;;;;;;10.95;4.57;;;;;;;13.56;48.79;100820.63;4482318;32;33398;-47
2021/10/08 05:55:09;;;;;;;10.05;5.87;;;;;;;13.79;47.82;100818.97;4481837;32;33936;-49
2021/10/08 05:57:37;;;;;;;13.57;4.57;;;;;;;13.67;48.08;100820.69;4482105;32;35235;-48
2021/10/08 06:00:05;;;;;;;8.70;4.25;;;;;;;13.89;48.18;100817.25;4481789;32;34626;-47
2021/10/08 06:02:41;;;;;;;15.05;4.97;;;;;;;13.59;48.43;100815.44;4481971;32;34264;-47
2021/10/08 06:05:09;;;;;;;9.38;5.47;;;;;;;13.60;48.82;100822.38;4468558;32;34015;-47
2021/10/08 06:07:37;;;;;;;11.75;5.05;;;;;;;13.81;48.23;100817.22;4482036;32;35044;-47
2021/10/08 06:10:05;;;;;;;11.82;5.87;;;;;;;13.78;48.32;100825.09;4481693;32;34474;-47
2021/10/08 06:12:33;;;;;;;11.10;4.55;;;;;;;13.93;47.82;100824.25;4481860;32;33930;-47
2021/10/08 06:15:01;;;;;;;14.68;4.62;;;;;;;13.71;48.67;100831.16;4481881;32;33956;-47
2021/10/08 06:17:29;;;;;;;12.37;4.80;;;;;;;13.81;47.57;100829.44;4482002;32;34951;-48
2021/10/08 06:19:57;;;;;;;11.38;4.90;;;;;;;13.56;48.58;100831.09;4482048;32;35090;-48
2021/10/08 06:22:25;;;;;;;12.43;4.60;;;;;;;13.71;48.29;100833.78;4468281;32;33979;-47
2021/10/08 06:24:53;;;;;;;11.18;5.43;;;;;;;13.72;48.08;100839.84;4482012;32;34738;-48
2021/10/08 06:27:22;;;;;;;12.55;5.55;;;;;;;13.88;47.51;100832.06;4481559;32;35375;-48
2021/10/08 06:29:50;;;;;;;13.40;5.68;;;;;;;13.66;47.68;100838.13;4481774;32;34809;-47
2021/10/08 06:32:17;;;;;;;12.63;5.35;;;;;;;13.67;48.07;100839.00;4482157;32;33408;-48
2021/10/08 06:34:45;;;;;;;15.30;5.82;;;;;;;14.00;47.42;100844.31;4481640;32;34573;-46
2021/10/08 06:37:13;;;;;;;13.43;6.07;;;;;;;14.07;47.62;100852.16;4483881;32;36153;-47
2021/10/08 06:39:41;;;;;;;18.95;6.97;;;;;;;14.04;47.06;100843.44;4484230;32;35375;-47
2021/10/08 06:42:09;;;;;;;13.90;6.10;;;;;;;14.10;46.70;100844.31;4483582;32;33607;-47
2021/10/08 06:44:37;;;;;;;18.30;7.32;;;;;;;13.88;47.10;100847.75;4483391;32;34466;-47
2021/10/08 06:47:05;;;;;;;14.87;5.35;;;;;;;13.75;47.24;100848.59;4483790;32;34933;-47
2021/10/08 06:49:33;;;;;;;19.70;5.28;;;;;;;13.77;47.27;100845.97;4483497;32;34293;-47
2021/10/08 06:52:02;;;;;;;13.43;4.47;;;;;;;13.99;47.10;100848.69;4484236;32;34981;-48
2021/10/08 06:54:30;;;;;;;13.38;4.80;;;;;;;14.14;46.79;100859.16;4483927;32;33744;-47
2021/10/08 06:56:58;;;;;;;15.35;5.18;;;;;;;14.12;47.00;100858.28;4483760;32;35853;-47
2021/10/08 06:59:27;;;;;;;19.95;5.03;;;;;;;13.85;47.40;100850.37;4483746;32;34313;-48
2021/10/08 07:01:54;;;;;;;15.10;4.75;;;;;;;14.06;47.87;100855.66;4483770;32;33340;-46
2021/10/08 07:04:22;;;;;;;14.20;5.70;;;;;;;13.97;47.85;100858.25;4483437;32;34161;-47
2021/10/08 07:06:50;;;;;;;12.82;5.60;;;;;;;14.09;46.98;100853.06;4483811;32;35702;-51
2021/10/08 07:09:18;;;;;;;16.35;5.65;;;;;;;14.37;46.63;100858.34;4483545;32;35251;-48
2021/10/08 07:11:46;;;;;;;11.00;5.22;;;;;;;14.31;46.96;100860.97;4483821;32;34864;-50
2021/10/08 07:14:13;;;;;;;11.35;5.10;;;;;;;14.45;46.24;100860.13;4469535;32;33334;-47
2021/10/08 07:16:41;;;;;;;14.23;5.93;;;;;;;14.42;46.51;100859.25;4483827;32;35024;-46
2021/10/08 07:19:11;;;;;;;15.90;5.43;;;;;;;14.33;46.76;100861.84;4483870;32;34732;-47
2021/10/08 07:21:41;;;;;;;19.87;5.70;;;;;;;14.58;47.14;100853.13;4483922;32;33605;-48
2021/10/08 07:24:10;;;;;;;13.48;5.45;;;;;;;14.61;47.00;100867.13;4483700;32;34906;-47
2021/10/08 07:26:38;;;;;;;16.80;5.78;;;;;;;14.57;46.59;100875.81;4469694;32;35126;-47
2021/10/08 07:29:05;;;;;;;13.07;5.43;;;;;;;14.67;46.17;100866.22;4483725;32;35359;-48
2021/10/08 07:31:33;;;;;;;14.55;5.30;;;;;;;14.91;45.47;100869.72;4469520;32;33472;-53
2021/10/08 07:34:01;;;;;;;11.77;5.37;;;;;;;14.69;46.00;100870.59;4483986;32;34622;-47
2021/10/08 07:36:28;;;;;;;16.23;5.53;;;;;;;14.81;45.90;100869.72;4483565;32;34895;-47
2021/10/08 07:38:56;;;;;;;12.65;5.15;;;;;;;14.76;45.64;100881.97;4483523;32;34659;-47
2021/10/08 07:41:23;;;;;;;16.83;5.65;;;;;;;14.93;44.94;100878.44;4483399;32;34085;-47
2021/10/08 07:43:51;;;;;;;10.85;5.47;;;;;;;14.64;44.79;100882.81;4483360;32;34778;-51
2021/10/08 07:46:18;;;;;;;8.35;5.18;;;;;;;14.69;44.62;100886.31;4483054;32;34685;-47
2021/10/08 07:48:46;;;;;;;11.63;5.47;;;;;;;14.64;44.73;100884.56;4482723;32;34743;-47
2021/10/08 07:51:13;;;;;;;12.05;5.25;;;;;;;14.47;44.75;100891.53;4483182;32;33479;-47
2021/10/08 07:53:41;;;;;;;9.27;5.15;;;;;;;14.58;45.07;100890.66;4483060;32;35087;-48
2021/10/08 07:56:09;;;;;;;13.68;4.97;;;;;;;14.63;44.82;100890.66;4483298;32;36109;-47
2021/10/08 07:58:36;;;;;;;8.63;4.70;;;;;;;14.93;44.13;100889.81;4483173;32;35427;-47
2021/10/08 08:01:05;;;;;;;13.32;5.47;;;;;;;14.60;45.06;100891.53;4468972;32;33238;-48
2021/10/08 08:03:33;;;;;;;14.60;5.22;;;;;;;14.83;44.04;100889.78;4468706;32;35086;-47
2021/10/08 08:06:00;;;;;;;13.25;5.60;;;;;;;14.82;44.04;100900.28;4482870;32;34818;-47
2021/10/08 08:08:28;;;;;;;13.80;5.82;;;;;;;14.74;44.37;100892.41;4468591;32;34421;-47
2021/10/08 08:10:55;;;;;;;14.77;5.90;;;;;;;15.04;44.28;100898.53;4482860;32;33456;-47
2021/10/08 08:13:23;;;;;;;12.23;6.03;;;;;;;15.03;44.29;100900.25;4482789;32;34006;-47
2021/10/08 08:15:50;;;;;;;15.40;6.05;;;;;;;15.04;44.35;100896.78;4468315;32;34725;-47
2021/10/08 08:18:18;;;;;;;14.30;4.93;;;;;;;14.96;43.91;100895.91;4482697;32;35201;-47
2021/10/08 08:20:45;;;;;;;16.17;5.22;;;;;;;14.70;44.64;100895.03;4483096;32;34305;-48
2021/10/08 08:23:13;;;;;;;11.27;4.97;;;;;;;14.90;43.85;100888.91;4482875;32;34063;-47
2021/10/08 08:25:41;;;;;;;14.40;5.72;;;;;;;14.80;44.54;100889.81;4482630;32;35579;-51
2021/10/08 08:28:08;;;;;;;16.48;5.60;;;;;;;15.12;43.50;100889.78;4482404;32;34789;-48
2021/10/08 08:30:38;;;;;;;13.23;5.70;;;;;;;14.74;44.56;100889.78;4482651;32;33686;-48
2021/10/08 08:33:06;;;;;;;13.62;5.18;;;;;;;15.26;43.55;100887.16;4483119;32;33854;-47
2021/10/08 08:35:34;;;;;;;15.05;5.03;;;;;;;15.32;44.25;100892.34;4483239;32;35902;-47
2021/10/08 08:38:01;;;;;;;14.30;6.25;;;;;;;15.20;43.93;100888.03;4482332;32;34646;-49
2021/10/08 08:40:29;;;;;;;14.82;5.85;;;;;;;15.43;43.42;100891.44;4482835;32;34304;-49
2021/10/08 08:42:57;;;;;;;14.05;5.37;;;;;;;15.43;42.99;100886.22;4483197;32;34089;-47
2021/10/08 08:45:27;;;;;;;13.27;5.55;;;;;;;15.51;43.25;100884.50;4482819;32;34857;-48
2021/10/08 08:48:10;;;;;;;17.00;5.80;;;;;;;15.19;43.90;100872.31;4469109;32;34413;-48
2021/10/08 08:50:40;;;;;;;12.13;5.78;;;;;;;15.09;43.87;100871.44;4483195;32;33597;-47
2021/10/08 08:53:08;;;;;;;11.90;5.00;;;;;;;15.15;43.89;100876.66;4482695;32;34849;-47
2021/10/08 08:55:36;;;;;;;21.27;5.85;;;;;;;14.95;44.15;100878.47;4468983;32;34890;-47
2021/10/08 08:58:04;;;;;;;14.30;5.72;;;;;;;15.00;44.35;100875.84;4483127;32;34481;-48
2021/10/08 09:00:31;;;;;;;15.93;6.37;;;;;;;15.23;44.41;100877.53;4482661;32;34264;-47
2021/10/08 09:03:03;;;;;;;11.88;5.60;;;;;;;15.19;44.09;100874.94;4482886;32;34864;-48
2021/10/08 09:05:34;;;;;;;12.48;5.50;;;;;;;15.05;44.63;100869.69;4482635;32;34919;-47
2021/10/08 09:08:05;;;;;;;15.30;5.05;;;;;;;15.22;44.51;100877.53;4482672;32;35205;-47
2021/10/08 09:10:38;;;;;;;15.82;5.78;;;;;;;15.38;44.30;100864.37;4482502;32;33524;-47
2021/10/08 09:13:06;;;;;;;13.68;5.07;;;;;;;15.34;43.98;100873.12;4482427;32;34045;-48
2021/10/08 09:15:49;;;;;;;17.08;5.95;;;;;;;15.39;43.63;100876.63;4482731;32;35805;-47
2021/10/08 09:18:27;;;;;;;12.18;5.53;;;;;;;15.54;43.47;100873.12;4482379;32;34453;-47
2021/10/08 09:21:05;;;;;;;20.15;5.78;;;;;;;15.39;43.53;100876.63;4482598;32;34633;-48
2021/10/08 09:23:47;;;;;;;15.95;5.50;;;;;;;15.48;43.87;100870.50;4482511;32;34102;-48
2021/10/08 09:26:22;;;;;;;15.15;5.87;;;;;;;15.58;43.26;100873.09;4468607;32;34927;-48
2021/10/08 09:29:00;;;;;;;11.00;5.15;;;;;;;15.43;43.51;100872.22;4468757;32;34527;-48
2021/10/08 09:31:38;;;;;;;14.10;5.47;;;;;;;15.55;43.93;100873.09;4482531;32;33597;-48
2021/10/08 09:34:21;;;;;;;16.83;5.55;;;;;;;15.86;43.98;100871.22;4483161;32;33926;-48
2021/10/08 09:36:55;;;;;;;12.45;5.43;;;;;;;15.80;43.60;100862.53;4482491;32;34890;-48
2021/10/08 09:39:29;;;;;;;13.73;5.72;;;;;;;16.09;42.10;100871.97;4468468;32;33965;-49
2021/10/08 09:41:59;;;;;;;14.07;5.93;;;;;;;16.02;42.36;100858.91;4481948;32;33402;-48
2021/10/08 09:44:32;;;;;;;10.80;5.22;;;;;;;16.08;41.91;100861.50;4467857;32;35094;-48
2021/10/08 09:47:17;;;;;;;13.90;4.65;;;;;;;16.19;42.01;100847.41;4468902;32;35858;-55
2021/10/08 09:49:47;;;;;;;14.63;5.07;;;;;;;16.12;42.49;100850.97;4481954;32;34255;-48
2021/10/08 09:52:31;;;;;;;12.18;4.82;;;;;;;16.28;41.88;100857.00;4482229;32;34411;-48
2021/10/08 09:55:05;;;;;;;11.98;5.28;;;;;;;16.39;41.53;100855.16;4482473;32;33959;-47
2021/10/08 09:57:54;;;;;;;9.15;4.70;;;;;;;16.39;41.25;100849.03;4482204;32;34945;-47
2021/10/08 10:00:43;;;;;;;14.95;4.82;;;;;;;16.45;41.31;100849.84;4482151;32;34773;-47
2021/10/08 10:03:12;;;;;;;17.48;5.50;;;;;;;16.68;41.42;100857.59;4482307;32;34245;-48
2021/10/08 10:05:40;;;;;;;12.77;5.22;;;;;;;16.69;40.93;100849.69;4482409;32;34283;-49
2021/10/08 10:08:08;;;;;;;9.15;5.72;;;;;;;16.65;40.53;100847.13;4481815;32;34875;-50
2021/10/08 10:10:37;;;;;;;13.27;6.15;;;;;;;16.62;40.84;100850.63;4482655;32;34830;-49
2021/10/08 10:13:10;;;;;;;11.77;5.72;;;;;;;16.84;40.98;100854.84;4483959;32;34341;-48
2021/10/08 10:15:46;;;;;;;15.05;5.55;;;;;;;16.93;39.92;100844.22;4470105;32;34033;-48
2021/10/08 10:18:18;;;;;;;15.73;5.62;;;;;;;17.00;39.74;100844.19;4483945;32;35972;-47
2021/10/08 10:20:48;;;;;;;8.82;4.97;;;;;;;17.11;39.45;100853.72;4469810;32;34367;-48
2021/10/08 10:23:19;;;;;;;13.50;4.75;;;;;;;17.07;39.49;100849.34;4483686;32;33874;-47
2021/10/08 10:25:48;;;;;;;16.45;5.35;;;;;;;16.92;39.66;100842.47;4469971;32;33783;-48
2021/10/08 10:28:15;;;;;;;13.77;5.85;;;;;;;17.38;39.50;100849.88;4484813;32;35071;-48
2021/10/08 10:30:46;;;;;;;11.93;4.90;;;;;;;17.33;40.08;100843.84;4470592;32;34868;-48
2021/10/08 10:33:15;;;;;;;13.48;5.07;;;;;;;17.48;40.25;100841.88;4457681;32;33863;-48
2021/10/08 10:35:48;;;;;;;16.45;4.60;;;;;;;17.41;38.98;100842.84;4457471;32;33970;-48
2021/10/08 10:38:25;;;;;;;17.42;4.87;;;;;;;17.51;38.75;100839.25;4484316;32;34803;-48
2021/10/08 10:41:19;;;;;;;11.45;5.18;;;;;;;17.73;38.92;100842.50;4484753;32;34218;-52
2021/10/08 10:43:51;;;;;;;11.60;4.80;;;;;;;17.81;38.09;100840.63;4484628;32;34324;-48
2021/10/08 10:46:32;;;;;;;12.73;5.12;;;;;;;17.71;37.73;100846.87;4470925;32;33724;-51
2021/10/08 10:52:04;;;;;;;14.50;5.07;;;;;;;17.86;38.18;100851.97;4484239;32;34193;-49
2021/10/08 10:54:37;;;;;;;16.60;5.12;;;;;;;17.66;38.30;100848.72;4484549;32;33432;-51
2021/10/08 10:57:06;;;;;;;15.20;5.47;;;;;;;18.03;37.79;100855.25;4484724;32;34756;-48
2021/10/08 10:59:35;;;;;;;13.15;4.85;;;;;;;17.91;37.74;100857.16;4484028;32;35354;-49
2021/10/08 11:02:03;;;;;;;9.77;5.00;;;;;;;17.97;37.27;100846.56;4469901;32;34968;-49
2021/10/08 11:04:32;;;;;;;10.82;5.03;;;;;;;17.94;37.50;100839.59;4484124;32;33609;-48
2021/10/08 11:07:03;;;;;;;12.57;4.87;;;;;;;17.90;37.19;100845.75;4484739;32;34966;-48
2021/10/08 11:09:31;;;;;;;12.68;5.10;;;;;;;17.88;37.87;100841.41;4484591;32;35123;-47
2021/10/08 11:12:32;;;;;;;19.35;6.68;;;;;;;18.16;37.21;100835.72;4484713;32;35210;-48
2021/10/08 11:17:54;;;;;;;10.73;4.72;;;;;;;18.14;36.24;100836.66;4484673;32;34814;-47
2021/10/08 11:20:26;;;;;;;12.07;4.05;;;;;;;18.16;36.86;100851.53;4484650;32;35027;-48
2021/10/08 11:23:05;;;;;;;10.32;4.35;;;;;;;18.24;35.52;100833.87;4483908;32;34408;-47
2021/10/08 11:25:34;;;;;;;9.70;5.15;;;;;;;18.29;36.21;100839.06;4484694;32;33528;-48
2021/10/08 11:28:02;;;;;;;8.57;3.72;;;;;;;18.34;36.91;100841.63;4483703;32;34686;-48
2021/10/08 11:30:30;;;;;;;7.35;3.62;;;;;;;18.30;34.96;100832.03;4484631;32;34815;-47
2021/10/08 11:32:58;;;;;;;11.35;4.25;;;;;;;18.12;35.68;100831.41;4483515;32;34211;-47
2021/10/08 11:35:30;;;;;;;15.48;4.15;;;;;;;18.48;35.41;100829.13;4482929;32;33495;-47
2021/10/08 11:37:58;;;;;;;11.95;5.53;;;;;;;18.32;35.92;100819.72;4482494;32;34075;-47